Time;durP1;ratioP1;P1;durP2;ratioP2;P2;SDS_P1;SDS_P2;PMS_P1;PMS_P2;Temp;Humidity;BMP_temperature;BMP_pressure;BME280_temperature;BME280_humidity;BME280_pressure;Samples;Min_cycle;Max_cycle;Signal;HPM_P1;HPM_P2
2022/07/19 00:01:38;;;;;;;7.70;4.85;;;21.30;99.90;;;;;;5033618;28;20131;-70
2022/07/19 00:04:04;;;;;;;7.45;4.95;;;22.00;99.90;;;;;;5051295;28;20098;-70
2022/07/19 00:06:29;;;;;;;7.63;4.55;;;21.20;99.90;;;;;;5051509;28;20424;-70
2022/07/19 00:08:55;;;;;;;10.18;5.05;;;21.50;99.90;;;;;;5016860;28;20475;-70
2022/07/19 00:11:20;;;;;;;7.88;4.60;;;21.10;99.90;;;;;;5033311;28;20087;-70
2022/07/19 00:13:46;;;;;;;6.32;4.43;;;21.00;99.90;;;;;;5051153;28;20041;-70
2022/07/19 00:16:12;;;;;;;8.80;4.25;;;21.20;99.90;;;;;;5033122;28;20060;-70
2022/07/19 00:18:38;;;;;;;6.78;4.47;;;21.90;99.90;;;;;;5033359;28;20094;-70
2022/07/19 00:21:03;;;;;;;8.00;4.72;;;21.20;99.90;;;;;;5033686;28;20490;-71
2022/07/19 00:23:29;;;;;;;7.82;4.00;;;21.00;99.90;;;;;;5033254;28;20428;-70
2022/07/19 00:25:54;;;;;;;5.57;4.45;;;23.30;99.90;;;;;;5032939;28;20036;-70
2022/07/19 00:28:20;;;;;;;7.50;4.38;;;21.00;99.90;;;;;;5051219;28;20049;-70
2022/07/19 00:30:46;;;;;;;8.25;4.32;;;21.00;99.90;;;;;;5033081;28;20045;-71
2022/07/19 00:33:11;;;;;;;7.18;5.43;;;21.50;99.90;;;;;;5033092;28;20041;-70
2022/07/19 00:35:40;;;;;;;7.55;4.30;;;21.70;99.90;;;;;;5050964;28;20037;-70
2022/07/19 00:38:07;;;;;;;6.78;4.63;;;20.80;99.90;;;;;;5051009;28;20048;-70
2022/07/19 00:40:32;;;;;;;11.30;5.32;;;20.70;99.90;;;;;;5033336;28;20414;-71
2022/07/19 00:42:58;;;;;;;7.43;4.20;;;21.50;99.90;;;;;;5033295;28;20041;-70
2022/07/19 00:45:23;;;;;;;8.07;4.25;;;20.90;99.90;;;;;;5050482;28;20044;-70
2022/07/19 00:47:49;;;;;;;8.77;4.28;;;20.70;99.90;;;;;;5033748;28;20044;-70
2022/07/19 00:50:15;;;;;;;8.23;5.30;;;20.70;99.90;;;;;;5037053;28;20037;-71
2022/07/19 00:52:42;;;;;;;5.28;4.43;;;20.90;99.90;;;;;;5036714;28;20040;-70
2022/07/19 00:55:09;;;;;;;8.98;4.50;;;21.40;99.90;;;;;;5036530;28;20041;-70
2022/07/19 00:57:38;;;;;;;6.57;3.90;;;20.60;99.90;;;;;;5070035;28;20039;-70
2022/07/19 01:00:06;;;;;;;6.40;4.32;;;20.80;99.90;;;;;;5054318;28;20068;-71
2022/07/19 01:02:32;;;;;;;6.20;4.65;;;20.90;99.90;;;;;;5054415;28;20409;-70
2022/07/19 01:05:00;;;;;;;10.75;5.22;;;21.60;99.90;;;;;;5054301;28;20120;-70
2022/07/19 01:07:26;;;;;;;7.53;4.50;;;20.70;99.90;;;;;;5054468;28;20055;-71
2022/07/19 01:09:52;;;;;;;8.32;4.15;;;20.70;99.90;;;;;;5054338;28;20115;-72
2022/07/19 01:12:19;;;;;;;8.85;4.63;;;21.90;99.90;;;;;;5036413;28;20527;-70
2022/07/19 01:14:45;;;;;;;7.50;4.43;;;20.60;99.90;;;;;;5054573;28;20339;-70
2022/07/19 01:17:10;;;;;;;6.45;4.15;;;21.10;99.90;;;;;;5036380;28;20048;-71
2022/07/19 01:19:36;;;;;;;14.10;4.65;;;21.20;99.90;;;;;;5036190;28;20084;-70
2022/07/19 01:22:02;;;;;;;8.20;4.45;;;20.40;99.90;;;;;;5036062;28;20041;-70
2022/07/19 01:24:28;;;;;;;6.25;4.07;;;20.70;99.90;;;;;;5035866;28;20410;-70
2022/07/19 01:26:53;;;;;;;6.63;4.30;;;21.00;99.90;;;;;;5035863;28;20169;-70
2022/07/19 01:29:19;;;;;;;7.07;4.70;;;20.30;99.90;;;;;;5019542;28;20533;-71
2022/07/19 01:31:44;;;;;;;7.03;4.43;;;20.20;99.90;;;;;;5035903;28;20481;-70
2022/07/19 01:34:10;;;;;;;6.07;4.47;;;20.70;99.90;;;;;;5053705;28;20041;-70
2022/07/19 01:36:36;;;;;;;7.32;4.47;;;20.40;99.90;;;;;;5053895;28;20037;-70
2022/07/19 01:39:01;;;;;;;7.97;4.60;;;20.40;99.90;;;;;;5035816;28;20033;-72
2022/07/19 01:41:27;;;;;;;6.55;4.57;;;21.00;99.90;;;;;;5035798;28;20417;-70
2022/07/19 01:43:52;;;;;;;8.93;4.82;;;20.00;99.90;;;;;;5018940;28;20102;-68
2022/07/19 01:46:18;;;;;;;6.90;4.45;;;20.20;99.90;;;;;;5053840;28;20029;-70
2022/07/19 01:48:43;;;;;;;6.50;4.65;;;20.40;99.90;;;;;;5053490;28;20044;-70
2022/07/19 01:51:09;;;;;;;6.53;4.50;;;20.20;99.90;;;;;;5019134;28;20080;-70
2022/07/19 01:53:34;;;;;;;6.10;4.32;;;20.10;99.90;;;;;;5053398;28;20059;-70
2022/07/19 01:56:03;;;;;;;7.28;4.30;;;20.30;99.90;;;;;;5035425;28;20071;-72
2022/07/19 01:58:29;;;;;;;6.57;4.93;;;20.00;99.90;;;;;;5035271;28;20037;-70
2022/07/19 02:00:55;;;;;;;8.25;4.88;;;20.50;99.90;;;;;;5052303;28;20037;-71
2022/07/19 02:03:20;;;;;;;5.88;4.53;;;20.20;99.90;;;;;;5035482;28;20119;-70
2022/07/19 02:05:46;;;;;;;5.95;4.40;;;20.20;99.90;;;;;;5035050;28;20099;-70
2022/07/19 02:08:11;;;;;;;6.10;4.53;;;20.00;99.90;;;;;;5053336;28;20044;-70
2022/07/19 02:10:37;;;;;;;6.00;4.45;;;21.10;99.90;;;;;;5053162;28;20079;-70
2022/07/19 02:13:03;;;;;;;11.40;4.70;;;20.20;99.90;;;;;;5035213;28;20624;-70
2022/07/19 02:15:28;;;;;;;11.02;4.43;;;20.00;99.90;;;;;;5053008;28;20044;-69
2022/07/19 02:17:55;;;;;;;7.63;4.90;;;20.10;99.90;;;;;;5053468;28;20179;-70
2022/07/19 02:20:21;;;;;;;6.25;4.20;;;19.90;99.90;;;;;;5053230;28;20122;-70
2022/07/19 02:22:47;;;;;;;9.13;4.85;;;19.90;99.90;;;;;;5053523;28;20036;-70
2022/07/19 02:25:13;;;;;;;7.60;4.70;;;19.80;99.90;;;;;;5035892;28;20490;-70
2022/07/19 02:27:39;;;;;;;8.80;5.80;;;19.80;99.90;;;;;;5035389;28;20044;-70
2022/07/19 02:30:05;;;;;;;8.60;4.88;;;20.40;99.90;;;;;;5036045;28;20052;-70
2022/07/19 02:32:31;;;;;;;8.45;4.82;;;19.80;99.90;;;;;;5035756;28;20055;-70
2022/07/19 02:34:56;;;;;;;6.97;4.55;;;20.60;99.90;;;;;;5053401;28;20033;-72
2022/07/19 02:37:22;;;;;;;7.90;4.88;;;20.10;99.90;;;;;;5035535;28;20034;-70
2022/07/19 02:39:47;;;;;;;8.00;4.82;;;19.70;99.90;;;;;;5035143;28;20088;-70
2022/07/19 02:42:13;;;;;;;8.82;5.20;;;20.50;99.90;;;;;;5052495;28;20327;-70
2022/07/19 02:44:38;;;;;;;7.43;5.18;;;19.70;99.90;;;;;;5034458;28;20125;-70
2022/07/19 02:47:04;;;;;;;14.52;5.45;;;19.70;99.90;;;;;;5034823;28;20040;-70
2022/07/19 02:49:30;;;;;;;9.65;5.35;;;19.70;99.90;;;;;;5056158;22;20462;-71
2022/07/19 02:51:55;;;;;;;9.10;5.00;;;19.90;99.90;;;;;;5031497;28;20048;-71
2022/07/19 02:54:21;;;;;;;9.15;4.55;;;19.70;99.90;;;;;;5031238;28;20033;-71
2022/07/19 02:56:46;;;;;;;8.05;5.00;;;19.70;99.90;;;;;;5031434;28;20513;-71
2022/07/19 02:59:12;;;;;;;7.53;5.47;;;19.90;99.90;;;;;;5031501;28;20045;-71
2022/07/19 03:01:37;;;;;;;8.50;5.25;;;19.60;99.90;;;;;;5031324;28;20033;-71
2022/07/19 03:04:03;;;;;;;8.25;5.63;;;20.00;99.90;;;;;;5031188;28;20526;-71
2022/07/19 03:06:29;;;;;;;10.30;6.35;;;19.50;99.90;;;;;;5032637;28;20038;-71
2022/07/19 03:08:54;;;;;;;7.90;4.85;;;19.70;99.90;;;;;;5031036;28;20041;-70
2022/07/19 03:11:20;;;;;;;8.95;5.45;;;19.40;99.90;;;;;;5030853;28;20029;-71
2022/07/19 03:13:46;;;;;;;9.40;5.20;;;21.20;99.90;;;;;;5032244;28;20075;-70
2022/07/19 03:16:11;;;;;;;10.05;5.22;;;19.50;99.90;;;;;;5030936;28;20475;-71
2022/07/19 03:18:37;;;;;;;9.00;5.28;;;19.60;99.90;;;;;;5031404;28;20034;-71
2022/07/19 03:21:03;;;;;;;11.45;5.93;;;19.80;99.90;;;;;;5031035;28;20072;-71
2022/07/19 03:23:32;;;;;;;8.43;5.72;;;19.50;99.90;;;;;;5030941;28;20128;-71
2022/07/19 03:25:58;;;;;;;7.40;5.03;;;19.40;99.90;;;;;;5014225;28;20132;-71
2022/07/19 03:28:24;;;;;;;6.55;5.32;;;20.10;99.90;;;;;;5032243;28;20041;-71
2022/07/19 03:30:50;;;;;;;7.68;5.28;;;19.60;99.90;;;;;;5032146;28;20095;-71
2022/07/19 03:33:15;;;;;;;9.48;5.75;;;19.50;99.90;;;;;;5032007;28;20045;-71
2022/07/19 03:35:45;;;;;;;11.27;5.88;;;20.10;99.90;;;;;;5031889;28;20071;-71
2022/07/19 03:38:11;;;;;;;9.48;5.32;;;19.20;99.90;;;;;;5030806;28;20069;-71
2022/07/19 03:40:37;;;;;;;7.80;5.88;;;20.10;99.90;;;;;;5031042;28;20049;-71
2022/07/19 03:43:03;;;;;;;8.55;4.72;;;19.40;99.90;;;;;;5030549;28;20042;-71
2022/07/19 03:45:28;;;;;;;10.75;5.97;;;19.50;99.90;;;;;;5030298;28;20038;-71
2022/07/19 03:47:54;;;;;;;6.63;5.03;;;19.90;99.90;;;;;;5030614;28;20140;-71
2022/07/19 03:50:19;;;;;;;8.15;5.30;;;20.60;99.90;;;;;;5030503;28;20045;-71
2022/07/19 03:52:45;;;;;;;12.27;6.13;;;20.30;99.90;;;;;;5031695;28;20621;-71
2022/07/19 03:55:11;;;;;;;9.63;5.78;;;20.60;99.90;;;;;;5031529;28;20407;-71
2022/07/19 03:57:36;;;;;;;7.97;5.47;;;20.00;99.90;;;;;;5014282;28;20037;-71
2022/07/19 04:00:04;;;;;;;9.65;5.07;;;19.30;99.90;;;;;;5030384;28;20110;-71
2022/07/19 04:02:29;;;;;;;9.57;6.55;;;19.30;99.90;;;;;;5030457;28;20068;-71
2022/07/19 04:04:55;;;;;;;8.85;5.50;;;19.30;99.90;;;;;;5013739;28;20073;-71
2022/07/19 04:07:21;;;;;;;8.48;5.55;;;20.10;99.90;;;;;;5030352;28;20388;-71
2022/07/19 04:09:46;;;;;;;10.02;6.28;;;19.20;99.90;;;;;;5013888;28;20087;-70
2022/07/19 04:12:12;;;;;;;10.07;5.82;;;19.30;99.90;;;;;;5030500;28;20057;-71
2022/07/19 04:14:37;;;;;;;8.13;5.32;;;19.40;99.90;;;;;;5029974;28;20522;-71
2022/07/19 04:17:04;;;;;;;9.18;4.80;;;19.30;99.90;;;;;;5013910;28;20044;-71
2022/07/19 04:19:30;;;;;;;7.60;6.00;;;19.60;99.90;;;;;;5013890;28;20037;-71
2022/07/19 04:21:56;;;;;;;8.55;5.13;;;20.80;99.90;;;;;;5031583;28;20068;-71
2022/07/19 04:24:21;;;;;;;8.80;5.05;;;19.30;99.90;;;;;;5033337;28;20480;-71
2022/07/19 04:26:47;;;;;;;13.02;4.93;;;20.30;99.90;;;;;;5018125;28;20045;-71
2022/07/19 04:29:12;;;;;;;12.35;5.82;;;19.40;99.90;;;;;;5035650;28;20081;-71
2022/07/19 04:31:38;;;;;;;8.60;4.65;;;19.60;99.90;;;;;;5034286;28;20048;-71
2022/07/19 04:34:03;;;;;;;7.13;5.10;;;19.60;99.90;;;;;;5035167;28;20033;-71
2022/07/19 04:36:29;;;;;;;8.63;5.40;;;20.00;99.90;;;;;;5017713;28;20083;-71
2022/07/19 04:38:55;;;;;;;8.65;5.10;;;19.60;99.90;;;;;;5033925;28;20037;-71
2022/07/19 04:41:20;;;;;;;10.32;5.28;;;20.20;99.90;;;;;;5034248;28;20510;-71
2022/07/19 04:43:46;;;;;;;10.82;5.68;;;19.70;99.90;;;;;;5033839;28;20044;-70
2022/07/19 04:46:11;;;;;;;12.10;6.20;;;20.50;99.90;;;;;;5033816;28;20532;-71
2022/07/19 04:48:37;;;;;;;10.43;6.10;;;19.50;99.90;;;;;;5033863;28;20048;-71
2022/07/19 04:51:05;;;;;;;10.02;6.03;;;19.60;99.90;;;;;;5034994;28;20037;-71
2022/07/19 04:53:31;;;;;;;11.77;5.70;;;19.80;99.90;;;;;;5033790;28;20045;-71
2022/07/19 04:55:56;;;;;;;8.07;5.25;;;19.70;99.90;;;;;;5031105;28;20040;-71
2022/07/19 04:58:22;;;;;;;6.70;5.38;;;19.70;99.90;;;;;;5034539;28;20040;-71
2022/07/19 05:00:47;;;;;;;9.80;5.57;;;19.80;99.90;;;;;;5033508;28;20041;-71
2022/07/19 05:03:13;;;;;;;10.57;6.07;;;19.80;99.90;;;;;;5033147;28;20053;-71
2022/07/19 05:05:38;;;;;;;6.40;4.90;;;20.00;99.90;;;;;;5033075;28;20136;-70
2022/07/19 05:08:04;;;;;;;9.52;5.93;;;19.90;99.90;;;;;;5034865;28;20046;-73
2022/07/19 05:10:30;;;;;;;9.90;5.80;;;20.00;99.90;;;;;;5034901;28;20478;-70
2022/07/19 05:12:55;;;;;;;9.02;6.13;;;20.90;99.90;;;;;;5034662;28;20041;-71
2022/07/19 05:15:21;;;;;;;9.57;6.13;;;19.80;99.90;;;;;;5016799;28;20095;-71
2022/07/19 05:17:46;;;;;;;8.30;5.57;;;19.80;99.90;;;;;;5016869;28;20041;-71
2022/07/19 05:20:15;;;;;;;10.85;5.88;;;20.10;99.90;;;;;;5033044;28;20045;-70
2022/07/19 05:22:41;;;;;;;13.02;6.35;;;20.20;99.90;;;;;;5033052;28;20052;-70
2022/07/19 05:25:07;;;;;;;5.95;4.28;;;20.10;99.90;;;;;;5032799;28;20037;-71
2022/07/19 05:27:32;;;;;;;8.68;5.28;;;20.30;99.90;;;;;;5032960;28;20669;-71
2022/07/19 05:29:58;;;;;;;9.48;5.30;;;21.10;99.90;;;;;;5034264;28;20075;-71
2022/07/19 05:32:23;;;;;;;11.13;6.15;;;22.10;99.90;;;;;;5041948;28;20120;-71
2022/07/19 05:34:49;;;;;;;11.05;5.18;;;20.70;99.90;;;;;;5052180;28;20037;-72
2022/07/19 05:37:14;;;;;;;10.00;6.32;;;20.60;99.90;;;;;;5036222;28;20040;-70
2022/07/19 05:39:40;;;;;;;8.07;5.05;;;20.70;99.90;;;;;;5052875;28;20079;-71
2022/07/19 05:42:06;;;;;;;7.75;5.18;;;22.00;99.90;;;;;;5054101;28;20041;-71
2022/07/19 05:44:31;;;;;;;8.88;5.25;;;22.10;99.90;;;;;;5035810;28;20068;-73
2022/07/19 05:46:57;;;;;;;8.35;5.30;;;22.10;99.90;;;;;;5052182;28;20527;-73
2022/07/19 05:49:22;;;;;;;8.95;5.93;;;22.30;99.90;;;;;;5040926;28;20041;-74
2022/07/19 05:51:48;;;;;;;6.75;4.95;;;21.10;99.90;;;;;;5041475;28;20048;-72
2022/07/19 05:54:13;;;;;;;14.60;5.82;;;22.20;99.90;;;;;;5052286;28;20120;-70
2022/07/19 05:56:39;;;;;;;16.13;6.88;;;21.50;99.90;;;;;;5036153;28;20406;-71
2022/07/19 05:59:05;;;;;;;8.88;5.68;;;21.30;99.90;;;;;;5052389;28;20037;-70
2022/07/19 06:01:30;;;;;;;9.32;5.22;;;21.30;99.90;;;;;;5052429;28;20029;-71
2022/07/19 06:03:59;;;;;;;9.45;5.10;;;21.40;99.90;;;;;;5051925;28;20419;-71
2022/07/19 06:06:30;;;;;;;9.13;4.72;;;21.70;99.90;;;;;;5053458;28;20502;-71
2022/07/19 06:08:57;;;;;;;11.43;5.55;;;21.90;99.90;;;;;;5052064;28;20556;-71
2022/07/19 06:11:23;;;;;;;6.95;5.40;;;21.90;99.90;;;;;;5052246;28;20041;-71
2022/07/19 06:13:49;;;;;;;6.13;4.57;;;22.00;99.90;;;;;;5053120;28;20114;-71
2022/07/19 06:16:15;;;;;;;6.85;4.70;;;22.20;99.90;;;;;;5035446;28;20044;-71
2022/07/19 06:18:41;;;;;;;9.73;5.25;;;22.10;99.90;;;;;;5035440;28;20115;-71
2022/07/19 06:21:12;;;;;;;10.70;4.88;;;22.30;99.90;;;;;;5052169;28;20073;-71
2022/07/19 06:23:39;;;;;;;10.02;5.07;;;22.20;99.90;;;;;;5051641;28;20506;-71
2022/07/19 06:26:06;;;;;;;8.40;5.20;;;22.90;99.90;;;;;;5024594;28;20033;-71
2022/07/19 06:28:32;;;;;;;6.47;4.55;;;22.60;99.90;;;;;;5048945;28;20044;-71
2022/07/19 06:30:58;;;;;;;13.68;5.18;;;23.50;99.90;;;;;;5051395;28;20041;-71
2022/07/19 06:33:24;;;;;;;13.48;5.38;;;22.70;99.90;;;;;;5048978;28;20041;-70
2022/07/19 06:35:50;;;;;;;11.73;6.38;;;23.10;99.90;;;;;;5036603;28;20079;-71
2022/07/19 06:38:16;;;;;;;10.02;5.13;;;22.80;99.90;;;;;;5033187;28;20514;-71
2022/07/19 06:40:42;;;;;;;14.23;5.00;;;23.40;99.90;;;;;;5033094;28;20111;-71
2022/07/19 06:43:07;;;;;;;7.93;4.68;;;23.60;99.90;;;;;;5031636;28;20045;-70
2022/07/19 06:45:33;;;;;;;6.65;4.50;;;23.10;99.90;;;;;;5047239;28;20065;-71
2022/07/19 06:47:59;;;;;;;8.70;4.85;;;24.00;99.90;;;;;;5032057;28;20045;-71
2022/07/19 06:50:24;;;;;;;8.07;4.97;;;23.20;99.50;;;;;;5032510;28;20041;-71
2022/07/19 06:52:50;;;;;;;11.98;4.88;;;23.40;99.40;;;;;;5051018;28;20041;-72
2022/07/19 06:55:16;;;;;;;6.93;4.22;;;23.50;99.70;;;;;;5046861;28;20436;-71
2022/07/19 06:57:42;;;;;;;10.07;5.70;;;23.70;99.50;;;;;;5031436;28;20034;-71
2022/07/19 07:00:09;;;;;;;10.65;5.60;;;23.60;99.50;;;;;;5022132;28;20079;-73
2022/07/19 07:02:38;;;;;;;8.25;4.93;;;23.70;99.30;;;;;;5030011;28;20469;-72
2022/07/19 07:05:06;;;;;;;7.75;4.50;;;24.00;99.30;;;;;;5030842;28;20046;-71
2022/07/19 07:07:32;;;;;;;8.05;4.40;;;24.00;99.20;;;;;;5032185;28;20080;-72
2022/07/19 07:09:58;;;;;;;7.78;4.55;;;24.20;99.10;;;;;;5032205;28;20068;-73
2022/07/19 07:12:23;;;;;;;7.93;4.13;;;24.70;99.50;;;;;;5014739;28;20554;-73
2022/07/19 07:14:49;;;;;;;9.30;3.95;;;24.30;99.20;;;;;;5030710;28;20041;-73
2022/07/19 07:17:14;;;;;;;5.97;3.88;;;24.30;99.40;;;;;;5030625;28;20044;-73
2022/07/19 07:19:40;;;;;;;6.05;3.88;;;24.60;99.30;;;;;;5032343;28;20091;-72
2022/07/19 07:22:06;;;;;;;6.38;4.25;;;24.60;99.20;;;;;;5032208;28;20522;-73
2022/07/19 07:24:31;;;;;;;6.15;3.60;;;24.60;99.20;;;;;;5030725;28;20518;-73
2022/07/19 07:26:57;;;;;;;6.53;4.03;;;24.70;98.80;;;;;;5032357;28;20120;-73
2022/07/19 07:29:22;;;;;;;6.07;3.38;;;26.30;99.40;;;;;;5030984;28;20053;-73
2022/07/19 07:31:48;;;;;;;6.03;4.28;;;25.00;98.80;;;;;;5031726;28;20041;-73
2022/07/19 07:34:14;;;;;;;5.35;3.38;;;25.20;98.70;;;;;;5030386;28;20121;-73
2022/07/19 07:36:39;;;;;;;4.97;3.50;;;25.20;98.70;;;;;;5035262;28;20060;-72
2022/07/19 07:39:05;;;;;;;9.20;3.85;;;26.20;98.90;;;;;;5055312;28;20050;-73
2022/07/19 07:41:30;;;;;;;8.00;3.63;;;25.30;98.60;;;;;;5049627;28;20042;-72
2022/07/19 07:43:56;;;;;;;7.38;3.58;;;25.50;98.70;;;;;;5050650;28;20061;-73
2022/07/19 07:46:21;;;;;;;7.47;3.83;;;25.50;98.70;;;;;;5050454;28;20037;-73
2022/07/19 07:48:47;;;;;;;5.35;3.35;;;25.70;98.60;;;;;;5052458;28;20112;-72
2022/07/19 07:51:13;;;;;;;4.63;3.50;;;25.90;98.60;;;;;;5031548;28;20045;-73
2022/07/19 07:53:38;;;;;;;7.72;2.97;;;26.00;98.50;;;;;;5039406;28;20053;-72
2022/07/19 07:56:04;;;;;;;8.55;2.78;;;25.90;98.70;;;;;;5040679;28;20070;-72
2022/07/19 07:58:30;;;;;;;7.20;3.53;;;25.90;98.40;;;;;;5028908;28;20045;-72
2022/07/19 08:00:55;;;;;;;6.63;2.90;;;26.80;98.80;;;;;;5018404;28;20240;-72
2022/07/19 08:03:21;;;;;;;4.13;2.72;;;26.40;98.40;;;;;;5030493;28;20538;-73
2022/07/19 08:05:48;;;;;;;6.10;2.85;;;26.40;98.20;;;;;;5031226;28;20042;-72
2022/07/19 08:08:16;;;;;;;7.35;2.95;;;26.40;98.10;;;;;;5031239;28;20045;-73
2022/07/19 08:10:42;;;;;;;10.00;2.80;;;26.70;97.80;;;;;;5013846;28;20033;-72
2022/07/19 08:13:08;;;;;;;4.40;2.80;;;27.50;98.00;;;;;;5030089;28;20042;-73
2022/07/19 08:15:38;;;;;;;6.45;2.83;;;27.70;98.10;;;;;;5031152;28;20041;-72
2022/07/19 08:18:05;;;;;;;6.70;2.67;;;26.70;97.30;;;;;;5013589;28;20044;-72
2022/07/19 08:20:31;;;;;;;6.93;2.90;;;27.00;97.60;;;;;;5022953;28;20518;-72
2022/07/19 08:22:57;;;;;;;3.38;2.72;;;27.10;97.70;;;;;;5030775;28;20048;-72
2022/07/19 08:25:23;;;;;;;3.92;2.63;;;27.20;97.80;;;;;;5029690;28;20107;-73
2022/07/19 08:27:48;;;;;;;4.65;2.88;;;27.30;97.20;;;;;;5031034;28;20495;-73
2022/07/19 08:30:14;;;;;;;4.43;2.70;;;27.30;97.20;;;;;;5031256;28;20037;-73
2022/07/19 08:32:40;;;;;;;4.07;2.40;;;27.30;97.00;;;;;;5012838;28;20045;-72
2022/07/19 08:35:07;;;;;;;3.50;2.15;;;27.70;97.20;;;;;;5031051;28;20124;-73
2022/07/19 08:37:34;;;;;;;4.13;2.40;;;27.60;96.90;;;;;;5030117;28;20568;-73
2022/07/19 08:40:00;;;;;;;5.03;2.55;;;28.50;97.50;;;;;;5031444;28;20045;-73
2022/07/19 08:42:26;;;;;;;5.72;2.58;;;28.00;97.30;;;;;;5031660;28;20034;-73
2022/07/19 08:44:53;;;;;;;4.38;2.35;;;28.20;96.90;;;;;;5029571;28;20048;-72
2022/07/19 08:47:21;;;;;;;6.53;2.63;;;28.70;96.90;;;;;;5029442;28;20529;-72
2022/07/19 08:49:47;;;;;;;5.60;2.40;;;28.10;96.90;;;;;;5084342;22;20490;-71
2022/07/19 08:52:13;;;;;;;7.65;3.33;;;28.20;96.90;;;;;;5110831;28;20039;-73
2022/07/19 08:54:40;;;;;;;3.38;2.22;;;28.30;96.80;;;;;;5092697;28;20675;-72
2022/07/19 08:59:50;;;;;;;5.30;2.10;;;28.50;96.00;;;;;;5099771;28;20044;-73
2022/07/19 09:02:15;;;;;;;5.05;2.03;;;28.70;96.20;;;;;;5072670;28;20047;-71
2022/07/19 09:04:42;;;;;;;8.57;2.45;;;28.50;95.90;;;;;;5090565;28;20032;-73
2022/07/19 09:07:07;;;;;;;6.63;2.20;;;28.70;96.10;;;;;;5055022;28;20081;-71
2022/07/19 09:09:36;;;;;;;6.32;2.53;;;28.80;96.20;;;;;;5072965;28;20052;-72
2022/07/19 09:12:04;;;;;;;6.97;2.25;;;29.00;96.00;;;;;;5059310;28;20081;-73
2022/07/19 09:14:31;;;;;;;5.00;2.35;;;29.10;96.10;;;;;;5074889;28;20485;-72
2022/07/19 09:17:06;;;;;;;3.08;2.28;;;29.00;96.00;;;;;;5074085;28;20077;-73
2022/07/19 09:19:37;;;;;;;4.82;1.83;;;29.10;95.10;;;;;;5075173;28;20028;-73
2022/07/19 09:22:09;;;;;;;3.67;2.15;;;29.20;95.90;;;;;;5094247;28;20044;-73
2022/07/19 09:24:41;;;;;;;2.83;2.10;;;29.30;95.40;;;;;;5076165;28;20089;-73
2022/07/19 09:27:07;;;;;;;4.30;2.33;;;29.60;94.90;;;;;;5059696;28;20457;-73
2022/07/19 09:29:35;;;;;;;2.55;1.80;;;29.60;94.70;;;;;;5075877;28;20512;-73
2022/07/19 09:32:16;;;;;;;4.97;1.65;;;29.80;95.10;;;;;;5094119;28;20346;-73
2022/07/19 09:34:48;;;;;;;4.85;2.05;;;30.00;94.80;;;;;;5075603;28;20499;-74
2022/07/19 09:37:18;;;;;;;7.10;1.90;;;29.80;94.80;;;;;;5076291;28;20067;-73
2022/07/19 09:39:46;;;;;;;2.70;1.85;;;29.90;94.20;;;;;;5093870;28;20488;-73
2022/07/19 09:42:14;;;;;;;3.28;1.92;;;30.00;94.00;;;;;;5094047;28;20044;-73
2022/07/19 09:44:40;;;;;;;4.40;1.70;;;30.10;93.70;;;;;;5109242;28;20088;-73
2022/07/19 09:47:05;;;;;;;3.47;2.17;;;30.10;93.90;;;;;;5093528;28;20123;-71
2022/07/19 09:49:31;;;;;;;6.13;1.83;;;30.20;94.30;;;;;;5075453;28;20043;-74
2022/07/19 09:51:57;;;;;;;4.88;1.90;;;30.70;93.60;;;;;;5093675;28;20043;-73
2022/07/19 09:54:26;;;;;;;9.68;2.28;;;30.50;93.80;;;;;;5092386;28;20494;-73
2022/07/19 09:56:52;;;;;;;5.03;2.75;;;30.30;93.30;;;;;;5109492;28;20127;-75
2022/07/19 09:59:20;;;;;;;3.70;1.67;;;30.50;93.30;;;;;;5075996;28;20067;-73
2022/07/19 10:01:51;;;;;;;4.03;1.90;;;30.60;93.20;;;;;;5109353;28;20505;-73
2022/07/19 10:04:20;;;;;;;7.38;1.88;;;30.80;92.70;;;;;;5093215;28;20525;-73
2022/07/19 10:06:49;;;;;;;5.53;2.08;;;30.80;92.90;;;;;;5075420;28;20039;-75
2022/07/19 10:09:16;;;;;;;5.97;1.70;;;30.80;92.90;;;;;;5058469;28;20039;-73
2022/07/19 10:11:42;;;;;;;3.10;1.90;;;30.80;92.10;;;;;;5075150;28;20028;-73
2022/07/19 10:14:09;;;;;;;5.38;2.00;;;31.10;92.50;;;;;;5058367;28;20051;-73
2022/07/19 10:16:53;;;;;;;3.72;2.15;;;31.20;91.60;;;;;;5058547;28;20294;-73
2022/07/19 10:19:37;;;;;;;3.00;1.65;;;31.20;91.80;;;;;;5064557;28;20134;-73
2022/07/19 10:22:03;;;;;;;6.30;2.03;;;31.40;91.60;;;;;;5050985;28;20409;-73
2022/07/19 10:24:47;;;;;;;2.92;1.90;;;31.30;91.20;;;;;;5071981;28;20036;-75
2022/07/19 10:27:15;;;;;;;2.25;1.60;;;31.00;91.10;;;;;;5088393;28;20062;-73
2022/07/19 10:29:41;;;;;;;4.43;1.75;;;31.40;91.10;;;;;;5070628;28;20046;-73
2022/07/19 10:32:12;;;;;;;3.33;1.60;;;31.80;91.30;;;;;;5055567;28;20040;-74
2022/07/19 10:34:39;;;;;;;3.70;1.67;;;31.70;91.10;;;;;;5069494;28;20041;-75
2022/07/19 10:37:04;;;;;;;3.40;1.80;;;31.90;91.80;;;;;;5075766;28;20028;-74
2022/07/19 10:39:35;;;;;;;4.60;1.80;;;32.00;91.10;;;;;;5074035;28;20040;-75
2022/07/19 10:42:13;;;;;;;2.40;1.83;;;31.90;90.50;;;;;;5073467;28;20040;-74
2022/07/19 10:44:57;;;;;;;3.53;1.58;;;31.80;90.80;;;;;;5072983;28;20097;-74
2022/07/19 10:47:32;;;;;;;2.97;1.55;;;31.90;90.60;;;;;;5073341;28;20035;-74
2022/07/19 10:50:08;;;;;;;2.97;1.60;;;31.90;90.50;;;;;;5069259;28;20107;-74
2022/07/19 10:52:39;;;;;;;3.53;1.70;;;32.00;90.70;;;;;;5088330;28;20410;-74
2022/07/19 10:55:17;;;;;;;3.72;1.80;;;31.90;89.30;;;;;;5064070;28;20033;-74
2022/07/19 10:57:50;;;;;;;3.08;1.23;;;32.10;90.60;;;;;;5068491;28;20039;-74
2022/07/19 11:00:22;;;;;;;2.28;1.40;;;32.10;90.20;;;;;;5086028;28;20118;-74
2022/07/19 11:02:48;;;;;;;1.85;1.35;;;32.20;90.20;;;;;;5053189;28;20043;-74
2022/07/19 11:05:25;;;;;;;3.70;1.50;;;33.20;90.50;;;;;;5084923;28;20063;-74
2022/07/19 11:07:52;;;;;;;2.30;1.42;;;32.50;90.30;;;;;;5081600;28;20032;-74
2022/07/19 11:10:29;;;;;;;6.38;1.50;;;32.50;89.50;;;;;;5088519;28;20036;-75
2022/07/19 11:12:56;;;;;;;3.15;1.33;;;32.60;89.60;;;;;;5066271;28;20075;-73
2022/07/19 11:15:27;;;;;;;2.58;1.52;;;32.70;90.60;;;;;;5052399;28;20038;-74
2022/07/19 11:18:05;;;;;;;1.88;1.20;;;32.80;90.30;;;;;;5083874;28;20040;-75
2022/07/19 11:20:33;;;;;;;5.53;1.67;;;32.80;90.10;;;;;;5072910;28;20044;-74
2022/07/19 11:23:00;;;;;;;3.75;1.55;;;32.90;90.10;;;;;;5090856;28;20409;-74
2022/07/19 11:25:29;;;;;;;2.78;1.42;;;33.00;90.40;;;;;;5070919;28;20043;-74
2022/07/19 11:27:55;;;;;;;3.38;1.40;;;33.20;90.00;;;;;;5057099;28;20047;-75
2022/07/19 11:30:22;;;;;;;5.22;1.52;;;33.20;89.60;;;;;;5070343;28;20040;-74
2022/07/19 11:33:02;;;;;;;3.13;1.40;;;33.10;89.80;;;;;;5069796;28;20047;-75
2022/07/19 11:35:28;;;;;;;3.70;1.52;;;32.80;88.60;;;;;;5076278;28;20047;-75
2022/07/19 11:37:55;;;;;;;3.70;1.27;;;33.20;88.70;;;;;;5073501;28;20394;-76
2022/07/19 11:40:23;;;;;;;3.30;1.30;;;33.20;87.70;;;;;;5055644;28;20035;-75
2022/07/19 11:42:49;;;;;;;1.63;0.82;;;33.20;87.20;;;;;;5090933;28;20047;-74
2022/07/19 11:45:21;;;;;;;2.67;1.13;;;33.30;88.60;;;;;;5079903;28;20450;-73
2022/07/19 11:47:49;;;;;;;2.95;1.20;;;33.40;87.20;;;;;;5084838;28;20059;-74
2022/07/19 11:50:17;;;;;;;3.08;1.10;;;33.40;88.00;;;;;;5090875;28;20040;-75
2022/07/19 11:52:57;;;;;;;3.28;1.30;;;33.60;87.40;;;;;;5072176;28;20044;-74
2022/07/19 11:55:26;;;;;;;2.53;0.93;;;33.50;85.90;;;;;;5101639;28;20032;-74
2022/07/19 11:57:52;;;;;;;5.22;1.40;;;33.50;86.90;;;;;;5089342;28;20489;-75
2022/07/19 12:00:19;;;;;;;2.63;1.33;;;33.40;86.40;;;;;;5094149;28;20036;-74
2022/07/19 12:03:04;;;;;;;2.22;1.17;;;33.40;88.20;;;;;;5072449;28;20563;-75
2022/07/19 12:05:38;;;;;;;3.83;1.25;;;34.00;87.50;;;;;;5072149;28;20083;-75
2022/07/19 12:08:09;;;;;;;1.48;1.05;;;33.90;90.10;;;;;;5072445;28;20046;-75
2022/07/19 12:10:44;;;;;;;1.98;1.42;;;33.90;87.60;;;;;;5055746;28;20117;-75
2022/07/19 12:13:15;;;;;;;1.95;1.48;;;33.90;86.80;;;;;;5090843;28;20040;-74
2022/07/19 12:15:55;;;;;;;2.88;1.30;;;34.20;90.70;;;;;;5056229;28;20134;-74
2022/07/19 12:18:40;;;;;;;2.40;1.60;;;34.10;90.90;;;;;;5091012;28;20101;-75
2022/07/19 12:21:24;;;;;;;2.97;1.33;;;34.00;90.40;;;;;;5073221;28;20119;-74
2022/07/19 12:24:18;;;;;;;2.50;1.25;;;34.10;91.50;;;;;;5091411;28;20040;-74
2022/07/19 12:26:58;;;;;;;1.88;1.50;;;34.30;91.00;;;;;;5051058;28;20036;-75
2022/07/19 12:29:26;;;;;;;5.80;1.48;;;34.30;90.70;;;;;;5090694;28;20043;-75
2022/07/19 12:31:54;;;;;;;4.63;1.80;;;34.40;90.80;;;;;;5071850;28;20501;-74
2022/07/19 12:34:20;;;;;;;3.05;1.70;;;34.40;90.60;;;;;;5073535;28;20396;-75
2022/07/19 12:36:46;;;;;;;2.17;1.20;;;34.40;91.10;;;;;;5090316;28;20036;-74
2022/07/19 12:39:23;;;;;;;6.00;1.55;;;34.40;90.60;;;;;;5093176;28;20047;-75
2022/07/19 12:42:06;;;;;;;4.40;1.60;;;34.70;92.10;;;;;;5089388;28;20046;-75
2022/07/19 12:44:32;;;;;;;;;;;34.80;90.20;;;;;;5092733;28;20097;-75
2022/07/19 12:46:58;;;;;;;1.58;1.38;;;34.50;90.20;;;;;;5076393;28;19974;-75
2022/07/19 12:49:24;;;;;;;3.67;1.98;;;34.80;90.30;;;;;;5094503;28;20070;-75